sensor_id;sensor_type;location;lat;lon;timestamp;P1;P2;P0
44933;PMS3003;30667;43.614;1.442;2023-10-08T00:01:28;17.00;15.40;7.80
44933;PMS3003;30667;43.614;1.442;2023-10-08T00:03:54;14.00;12.50;6.50
44933;PMS3003;30667;43.614;1.442;2023-10-08T00:06:23;16.00;15.00;8.00
44933;PMS3003;30667;43.614;1.442;2023-10-08T00:08:48;14.00;13.00;8.00
44933;PMS3003;30667;43.614;1.442;2023-10-08T00:11:15;17.60;13.60;7.40
44933;PMS3003;30667;43.614;1.442;2023-10-08T00:13:41;17.75;15.50;8.00
44933;PMS3003;30667;43.614;1.442;2023-10-08T00:16:08;15.80;14.60;8.80
44933;PMS3003;30667;43.614;1.442;2023-10-08T00:18:35;13.20;12.40;7.60
44933;PMS3003;30667;43.614;1.442;2023-10-08T00:21:02;14.00;13.80;8.00
44933;PMS3003;30667;43.614;1.442;2023-10-08T00:23:37;13.00;12.20;7.40
44933;PMS3003;30667;43.614;1.442;2023-10-08T00:26:07;11.80;11.60;6.20
44933;PMS3003;30667;43.614;1.442;2023-10-08T00:28:33;13.40;12.00;6.80
44933;PMS3003;30667;43.614;1.442;2023-10-08T00:31:01;13.75;12.25;7.00
44933;PMS3003;30667;43.614;1.442;2023-10-08T00:33:37;12.80;11.80;6.20
44933;PMS3003;30667;43.614;1.442;2023-10-08T00:36:04;12.00;11.20;5.20
44933;PMS3003;30667;43.614;1.442;2023-10-08T00:38:51;11.80;11.40;6.20
44933;PMS3003;30667;43.614;1.442;2023-10-08T00:41:19;13.00;11.60;6.00
44933;PMS3003;30667;43.614;1.442;2023-10-08T00:43:47;14.00;13.60;5.80
44933;PMS3003;30667;43.614;1.442;2023-10-08T00:46:13;11.20;9.80;6.00
44933;PMS3003;30667;43.614;1.442;2023-10-08T00:48:47;11.60;11.00;5.00
44933;PMS3003;30667;43.614;1.442;2023-10-08T00:51:14;11.60;8.80;5.60
44933;PMS3003;30667;43.614;1.442;2023-10-08T00:53:46;10.40;10.40;5.00
44933;PMS3003;30667;43.614;1.442;2023-10-08T00:56:13;13.00;11.80;5.40
44933;PMS3003;30667;43.614;1.442;2023-10-08T00:58:44;12.40;10.20;5.20
44933;PMS3003;30667;43.614;1.442;2023-10-08T01:01:14;12.80;9.80;4.60
44933;PMS3003;30667;43.614;1.442;2023-10-08T01:03:41;13.20;11.20;5.20
44933;PMS3003;30667;43.614;1.442;2023-10-08T01:06:10;11.80;9.80;5.20
44933;PMS3003;30667;43.614;1.442;2023-10-08T01:08:37;11.00;11.00;5.40
44933;PMS3003;30667;43.614;1.442;2023-10-08T01:11:21;11.00;10.00;5.00
44933;PMS3003;30667;43.614;1.442;2023-10-08T01:13:56;13.40;11.00;5.40
44933;PMS3003;30667;43.614;1.442;2023-10-08T01:16:23;11.60;11.20;5.60
44933;PMS3003;30667;43.614;1.442;2023-10-08T01:18:52;10.60;10.20;4.20
44933;PMS3003;30667;43.614;1.442;2023-10-08T01:21:19;12.80;10.60;5.80
44933;PMS3003;30667;43.614;1.442;2023-10-08T01:23:58;12.60;10.40;4.40
44933;PMS3003;30667;43.614;1.442;2023-10-08T01:26:26;12.00;9.80;4.60
44933;PMS3003;30667;43.614;1.442;2023-10-08T01:28:54;10.20;10.20;5.40
44933;PMS3003;30667;43.614;1.442;2023-10-08T01:31:19;10.00;9.50;5.00
44933;PMS3003;30667;43.614;1.442;2023-10-08T01:33:45;9.75;9.50;5.00
44933;PMS3003;30667;43.614;1.442;2023-10-08T01:36:15;11.20;9.60;5.00
44933;PMS3003;30667;43.614;1.442;2023-10-08T01:38:41;10.00;9.50;4.00
44933;PMS3003;30667;43.614;1.442;2023-10-08T01:41:07;10.25;10.25;5.00
44933;PMS3003;30667;43.614;1.442;2023-10-08T01:43:44;11.20;10.80;5.80
44933;PMS3003;30667;43.614;1.442;2023-10-08T01:46:10;9.60;7.80;4.00
44933;PMS3003;30667;43.614;1.442;2023-10-08T01:48:37;10.80;9.60;5.00
44933;PMS3003;30667;43.614;1.442;2023-10-08T01:51:04;11.60;8.20;5.00
44933;PMS3003;30667;43.614;1.442;2023-10-08T01:53:36;11.20;9.20;4.20
44933;PMS3003;30667;43.614;1.442;2023-10-08T01:56:04;9.20;7.40;3.80
44933;PMS3003;30667;43.614;1.442;2023-10-08T01:58:30;10.00;7.80;4.00
44933;PMS3003;30667;43.614;1.442;2023-10-08T02:00:55;11.25;10.25;5.00
44933;PMS3003;30667;43.614;1.442;2023-10-08T02:03:25;9.40;9.00;3.60
44933;PMS3003;30667;43.614;1.442;2023-10-08T02:05:52;11.80;9.80;3.80
44933;PMS3003;30667;43.614;1.442;2023-10-08T02:08:18;10.60;8.80;4.00
44933;PMS3003;30667;43.614;1.442;2023-10-08T02:10:45;9.80;8.40;4.60
44933;PMS3003;30667;43.614;1.442;2023-10-08T02:13:12;11.80;8.80;4.00
44933;PMS3003;30667;43.614;1.442;2023-10-08T02:15:43;12.00;10.00;5.00
44933;PMS3003;30667;43.614;1.442;2023-10-08T02:18:10;9.40;8.80;4.00
44933;PMS3003;30667;43.614;1.442;2023-10-08T02:20:36;13.00;8.75;4.00
44933;PMS3003;30667;43.614;1.442;2023-10-08T02:23:01;8.75;7.50;3.00
44933;PMS3003;30667;43.614;1.442;2023-10-08T02:25:30;11.00;10.00;4.00
44933;PMS3003;30667;43.614;1.442;2023-10-08T02:27:56;9.00;7.00;4.00
44933;PMS3003;30667;43.614;1.442;2023-10-08T02:30:22;9.80;8.20;3.20
44933;PMS3003;30667;43.614;1.442;2023-10-08T02:32:48;10.00;9.75;5.00
44933;PMS3003;30667;43.614;1.442;2023-10-08T02:35:14;11.00;11.00;5.00
44933;PMS3003;30667;43.614;1.442;2023-10-08T02:37:40;9.50;8.00;4.00
44933;PMS3003;30667;43.614;1.442;2023-10-08T02:40:09;9.00;8.00;4.00
44933;PMS3003;30667;43.614;1.442;2023-10-08T02:42:53;6.80;6.00;2.80
44933;PMS3003;30667;43.614;1.442;2023-10-08T02:45:24;9.60;8.60;4.00
44933;PMS3003;30667;43.614;1.442;2023-10-08T02:47:54;11.40;7.60;4.00
44933;PMS3003;30667;43.614;1.442;2023-10-08T02:50:20;10.60;9.00;3.20
44933;PMS3003;30667;43.614;1.442;2023-10-08T02:52:47;8.40;8.40;4.00
44933;PMS3003;30667;43.614;1.442;2023-10-08T02:55:16;9.80;7.00;3.00
44933;PMS3003;30667;43.614;1.442;2023-10-08T02:58:15;12.20;8.60;3.00
44933;PMS3003;30667;43.614;1.442;2023-10-08T03:00:44;7.20;6.80;3.00
44933;PMS3003;30667;43.614;1.442;2023-10-08T03:03:12;9.40;7.00;4.20
44933;PMS3003;30667;43.614;1.442;2023-10-08T03:05:44;9.80;8.60;4.00
44933;PMS3003;30667;43.614;1.442;2023-10-08T03:08:11;11.80;8.80;4.00
44933;PMS3003;30667;43.614;1.442;2023-10-08T03:10:38;10.60;8.80;4.00
44933;PMS3003;30667;43.614;1.442;2023-10-08T03:13:05;10.00;8.80;4.00
44933;PMS3003;30667;43.614;1.442;2023-10-08T03:15:30;9.00;6.60;3.00
44933;PMS3003;30667;43.614;1.442;2023-10-08T03:18:04;10.60;9.20;4.00
44933;PMS3003;30667;43.614;1.442;2023-10-08T03:20:39;10.20;8.80;4.00
44933;PMS3003;30667;43.614;1.442;2023-10-08T03:23:09;10.60;10.60;4.80
44933;PMS3003;30667;43.614;1.442;2023-10-08T03:25:52;11.80;10.80;4.80
44933;PMS3003;30667;43.614;1.442;2023-10-08T03:28:25;11.80;10.60;5.80
44933;PMS3003;30667;43.614;1.442;2023-10-08T03:30:52;11.80;9.40;4.00
44933;PMS3003;30667;43.614;1.442;2023-10-08T03:33:28;10.60;9.60;4.00
44933;PMS3003;30667;43.614;1.442;2023-10-08T03:35:59;9.20;9.00;4.60
44933;PMS3003;30667;43.614;1.442;2023-10-08T03:38:39;12.00;10.60;5.00
44933;PMS3003;30667;43.614;1.442;2023-10-08T03:41:15;9.80;9.60;5.00
44933;PMS3003;30667;43.614;1.442;2023-10-08T03:43:44;10.00;10.00;4.00
44933;PMS3003;30667;43.614;1.442;2023-10-08T03:46:31;10.00;10.00;4.00
44933;PMS3003;30667;43.614;1.442;2023-10-08T03:49:04;12.00;11.40;4.60
44933;PMS3003;30667;43.614;1.442;2023-10-08T03:51:39;8.60;7.80;4.00
44933;PMS3003;30667;43.614;1.442;2023-10-08T03:54:06;11.25;10.00;4.00
44933;PMS3003;30667;43.614;1.442;2023-10-08T03:56:34;9.80;9.80;3.80
44933;PMS3003;30667;43.614;1.442;2023-10-08T03:59:03;9.80;8.00;4.00
44933;PMS3003;30667;43.614;1.442;2023-10-08T04:01:37;11.00;9.00;4.00
44933;PMS3003;30667;43.614;1.442;2023-10-08T04:04:06;9.00;8.80;4.20
44933;PMS3003;30667;43.614;1.442;2023-10-08T04:06:37;10.00;8.60;3.20
44933;PMS3003;30667;43.614;1.442;2023-10-08T04:09:03;9.20;9.20;4.60
44933;PMS3003;30667;43.614;1.442;2023-10-08T04:11:30;10.00;10.00;4.00
44933;PMS3003;30667;43.614;1.442;2023-10-08T04:14:04;10.00;8.40;4.00
44933;PMS3003;30667;43.614;1.442;2023-10-08T04:16:31;9.00;9.00;4.00
44933;PMS3003;30667;43.614;1.442;2023-10-08T04:19:02;9.80;9.00;4.40
44933;PMS3003;30667;43.614;1.442;2023-10-08T04:21:30;8.60;7.20;3.40
44933;PMS3003;30667;43.614;1.442;2023-10-08T04:23:58;8.60;7.80;3.00
44933;PMS3003;30667;43.614;1.442;2023-10-08T04:26:33;11.60;10.00;4.00
44933;PMS3003;30667;43.614;1.442;2023-10-08T04:28:59;11.00;10.00;4.25
44933;PMS3003;30667;43.614;1.442;2023-10-08T04:31:31;8.80;8.00;4.00
44933;PMS3003;30667;43.614;1.442;2023-10-08T04:34:08;10.00;8.20;3.00
44933;PMS3003;30667;43.614;1.442;2023-10-08T04:36:47;8.00;8.00;3.60
44933;PMS3003;30667;43.614;1.442;2023-10-08T04:39:19;9.40;8.20;3.00
44933;PMS3003;30667;43.614;1.442;2023-10-08T04:42:00;9.00;7.80;3.60
44933;PMS3003;30667;43.614;1.442;2023-10-08T04:44:37;11.20;9.40;3.20
44933;PMS3003;30667;43.614;1.442;2023-10-08T04:47:08;6.60;6.60;3.00
44933;PMS3003;30667;43.614;1.442;2023-10-08T04:49:34;9.40;8.20;3.40
44933;PMS3003;30667;43.614;1.442;2023-10-08T04:52:04;7.80;7.60;4.00
44933;PMS3003;30667;43.614;1.442;2023-10-08T04:54:38;8.20;6.40;3.00
44933;PMS3003;30667;43.614;1.442;2023-10-08T04:57:05;8.40;7.80;3.00
44933;PMS3003;30667;43.614;1.442;2023-10-08T04:59:32;9.80;9.00;3.20
44933;PMS3003;30667;43.614;1.442;2023-10-08T05:02:02;8.40;7.60;3.40
44933;PMS3003;30667;43.614;1.442;2023-10-08T05:04:48;9.00;8.20;3.40
44933;PMS3003;30667;43.614;1.442;2023-10-08T05:07:20;7.20;7.20;3.00
44933;PMS3003;30667;43.614;1.442;2023-10-08T05:09:51;9.80;8.40;4.00
44933;PMS3003;30667;43.614;1.442;2023-10-08T05:12:35;6.80;6.60;3.40
44933;PMS3003;30667;43.614;1.442;2023-10-08T05:15:10;12.40;10.40;3.00
44933;PMS3003;30667;43.614;1.442;2023-10-08T05:17:47;9.00;8.20;4.00
44933;PMS3003;30667;43.614;1.442;2023-10-08T05:20:19;10.00;9.80;5.00
44933;PMS3003;30667;43.614;1.442;2023-10-08T05:23:11;9.80;9.80;4.40
44933;PMS3003;30667;43.614;1.442;2023-10-08T05:25:53;8.00;8.00;3.00
44933;PMS3003;30667;43.614;1.442;2023-10-08T05:28:32;10.00;9.00;4.20
44933;PMS3003;30667;43.614;1.442;2023-10-08T05:31:08;9.40;9.40;4.00
44933;PMS3003;30667;43.614;1.442;2023-10-08T05:33:40;9.60;9.00;4.00
44933;PMS3003;30667;43.614;1.442;2023-10-08T05:36:15;10.20;8.60;4.40
44933;PMS3003;30667;43.614;1.442;2023-10-08T05:38:52;12.00;9.00;4.00
44933;PMS3003;30667;43.614;1.442;2023-10-08T05:41:44;9.40;8.60;4.00
44933;PMS3003;30667;43.614;1.442;2023-10-08T05:44:28;12.00;11.20;5.00
44933;PMS3003;30667;43.614;1.442;2023-10-08T05:47:04;9.00;8.20;3.20
44933;PMS3003;30667;43.614;1.442;2023-10-08T05:50:08;9.60;8.20;3.40
44933;PMS3003;30667;43.614;1.442;2023-10-08T05:52:43;10.80;9.00;4.00
44933;PMS3003;30667;43.614;1.442;2023-10-08T05:55:18;9.80;9.40;4.00
44933;PMS3003;30667;43.614;1.442;2023-10-08T05:57:59;9.80;8.60;3.00
44933;PMS3003;30667;43.614;1.442;2023-10-08T06:00:39;9.40;8.80;4.00
44933;PMS3003;30667;43.614;1.442;2023-10-08T06:03:27;12.60;10.00;4.60
44933;PMS3003;30667;43.614;1.442;2023-10-08T06:06:07;11.20;10.40;4.20
44933;PMS3003;30667;43.614;1.442;2023-10-08T06:08:36;7.80;7.20;3.80
44933;PMS3003;30667;43.614;1.442;2023-10-08T06:11:15;11.20;9.40;4.00
44933;PMS3003;30667;43.614;1.442;2023-10-08T06:14:00;11.60;10.20;4.80
44933;PMS3003;30667;43.614;1.442;2023-10-08T06:16:26;10.00;9.25;4.00
44933;PMS3003;30667;43.614;1.442;2023-10-08T06:19:07;11.00;9.60;5.00
44933;PMS3003;30667;43.614;1.442;2023-10-08T06:21:35;10.40;9.60;4.00
44933;PMS3003;30667;43.614;1.442;2023-10-08T06:24:03;10.60;9.20;4.00
44933;PMS3003;30667;43.614;1.442;2023-10-08T06:26:34;9.80;8.40;4.00
44933;PMS3003;30667;43.614;1.442;2023-10-08T06:29:07;8.80;8.80;4.00
44933;PMS3003;30667;43.614;1.442;2023-10-08T06:31:44;10.20;9.00;4.00
44933;PMS3003;30667;43.614;1.442;2023-10-08T06:34:16;9.80;9.00;3.00
44933;PMS3003;30667;43.614;1.442;2023-10-08T06:36:45;9.80;7.80;3.00
44933;PMS3003;30667;43.614;1.442;2023-10-08T06:39:11;9.60;8.80;3.40
44933;PMS3003;30667;43.614;1.442;2023-10-08T06:41:43;10.60;9.80;3.00
44933;PMS3003;30667;43.614;1.442;2023-10-08T06:44:08;8.00;6.25;3.00
44933;PMS3003;30667;43.614;1.442;2023-10-08T06:46:39;9.60;8.00;4.00
44933;PMS3003;30667;43.614;1.442;2023-10-08T06:49:06;9.25;7.75;3.25
44933;PMS3003;30667;43.614;1.442;2023-10-08T06:51:36;7.60;7.60;3.00
44933;PMS3003;30667;43.614;1.442;2023-10-08T06:54:03;8.00;8.00;2.00
44933;PMS3003;30667;43.614;1.442;2023-10-08T06:56:29;8.75;8.00;3.00
44933;PMS3003;30667;43.614;1.442;2023-10-08T06:58:56;8.80;7.40;3.00
44933;PMS3003;30667;43.614;1.442;2023-10-08T07:01:24;7.60;6.00;3.00
44933;PMS3003;30667;43.614;1.442;2023-10-08T07:03:56;9.40;8.60;3.40
44933;PMS3003;30667;43.614;1.442;2023-10-08T07:06:31;8.40;5.80;3.00
44933;PMS3003;30667;43.614;1.442;2023-10-08T07:08:59;9.40;8.20;4.00
44933;PMS3003;30667;43.614;1.442;2023-10-08T07:11:30;8.20;7.80;3.00
44933;PMS3003;30667;43.614;1.442;2023-10-08T07:14:00;10.80;7.60;3.00
44933;PMS3003;30667;43.614;1.442;2023-10-08T07:16:26;9.80;9.00;4.40
44933;PMS3003;30667;43.614;1.442;2023-10-08T07:18:53;10.20;9.00;3.40
44933;PMS3003;30667;43.614;1.442;2023-10-08T07:21:26;8.80;8.00;3.20
44933;PMS3003;30667;43.614;1.442;2023-10-08T07:23:55;10.80;9.40;4.00
44933;PMS3003;30667;43.614;1.442;2023-10-08T07:26:29;8.40;8.40;4.00
44933;PMS3003;30667;43.614;1.442;2023-10-08T07:29:01;12.00;10.00;4.00
44933;PMS3003;30667;43.614;1.442;2023-10-08T07:31:33;11.00;10.00;5.00
44933;PMS3003;30667;43.614;1.442;2023-10-08T07:34:01;11.60;10.00;4.00
44933;PMS3003;30667;43.614;1.442;2023-10-08T07:36:47;9.20;8.80;4.60
44933;PMS3003;30667;43.614;1.442;2023-10-08T07:39:17;8.60;8.00;3.00
44933;PMS3003;30667;43.614;1.442;2023-10-08T07:41:59;10.60;9.00;4.00
44933;PMS3003;30667;43.614;1.442;2023-10-08T07:44:26;9.20;8.60;4.00
44933;PMS3003;30667;43.614;1.442;2023-10-08T07:46:53;9.40;8.40;4.00
44933;PMS3003;30667;43.614;1.442;2023-10-08T07:49:22;13.60;10.60;5.00
44933;PMS3003;30667;43.614;1.442;2023-10-08T07:51:49;12.40;11.00;5.00
44933;PMS3003;30667;43.614;1.442;2023-10-08T07:54:21;11.60;10.00;5.00
44933;PMS3003;30667;43.614;1.442;2023-10-08T07:56:48;11.00;10.00;5.00
44933;PMS3003;30667;43.614;1.442;2023-10-08T07:59:14;12.00;10.60;5.00
44933;PMS3003;30667;43.614;1.442;2023-10-08T08:01:41;12.60;10.20;4.40
44933;PMS3003;30667;43.614;1.442;2023-10-08T08:04:10;10.00;10.00;5.00
44933;PMS3003;30667;43.614;1.442;2023-10-08T08:06:46;11.00;10.00;4.80
44933;PMS3003;30667;43.614;1.442;2023-10-08T08:09:14;12.00;10.00;5.00
44933;PMS3003;30667;43.614;1.442;2023-10-08T08:11:44;11.00;9.60;4.60
44933;PMS3003;30667;43.614;1.442;2023-10-08T08:14:14;10.20;10.20;5.00
44933;PMS3003;30667;43.614;1.442;2023-10-08T08:16:42;10.00;8.60;3.40
44933;PMS3003;30667;43.614;1.442;2023-10-08T08:19:12;11.60;11.00;5.60
44933;PMS3003;30667;43.614;1.442;2023-10-08T08:21:40;10.80;10.00;4.00
44933;PMS3003;30667;43.614;1.442;2023-10-08T08:24:10;9.00;9.00;5.00
44933;PMS3003;30667;43.614;1.442;2023-10-08T08:26:46;11.20;10.00;4.60
44933;PMS3003;30667;43.614;1.442;2023-10-08T08:29:27;9.00;8.40;5.00
44933;PMS3003;30667;43.614;1.442;2023-10-08T08:31:54;12.00;10.80;5.00
44933;PMS3003;30667;43.614;1.442;2023-10-08T08:34:22;11.40;9.20;4.80
44933;PMS3003;30667;43.614;1.442;2023-10-08T08:36:48;10.00;10.00;4.00
44933;PMS3003;30667;43.614;1.442;2023-10-08T08:39:17;9.75;9.50;4.25
44933;PMS3003;30667;43.614;1.442;2023-10-08T08:42:00;10.40;10.00;5.00
44933;PMS3003;30667;43.614;1.442;2023-10-08T08:44:29;10.40;9.80;5.00
44933;PMS3003;30667;43.614;1.442;2023-10-08T08:47:00;10.40;10.00;5.00
44933;PMS3003;30667;43.614;1.442;2023-10-08T08:49:29;9.40;8.00;4.40
44933;PMS3003;30667;43.614;1.442;2023-10-08T08:51:59;9.20;8.80;4.80
44933;PMS3003;30667;43.614;1.442;2023-10-08T08:54:26;11.00;9.80;4.00
44933;PMS3003;30667;43.614;1.442;2023-10-08T08:56:55;12.20;9.00;4.00
44933;PMS3003;30667;43.614;1.442;2023-10-08T08:59:29;9.00;8.80;4.80
44933;PMS3003;30667;43.614;1.442;2023-10-08T09:01:56;9.80;9.80;5.00
44933;PMS3003;30667;43.614;1.442;2023-10-08T09:04:33;7.60;7.60;4.00
44933;PMS3003;30667;43.614;1.442;2023-10-08T09:07:02;9.80;9.20;4.40
44933;PMS3003;30667;43.614;1.442;2023-10-08T09:09:34;12.80;9.20;4.80
44933;PMS3003;30667;43.614;1.442;2023-10-08T09:12:03;11.60;9.20;4.00
44933;PMS3003;30667;43.614;1.442;2023-10-08T09:14:30;10.60;9.00;5.40
44933;PMS3003;30667;43.614;1.442;2023-10-08T09:16:59;8.00;7.40;4.60
44933;PMS3003;30667;43.614;1.442;2023-10-08T09:19:26;11.00;9.60;5.00
44933;PMS3003;30667;43.614;1.442;2023-10-08T09:24:41;11.00;9.80;5.00
44933;PMS3003;30667;43.614;1.442;2023-10-08T09:27:08;12.20;12.00;6.00
44933;PMS3003;30667;43.614;1.442;2023-10-08T09:29:43;11.20;8.40;5.00
44933;PMS3003;30667;43.614;1.442;2023-10-08T09:32:09;9.25;7.50;4.00
44933;PMS3003;30667;43.614;1.442;2023-10-08T09:34:38;11.60;9.20;4.00
44933;PMS3003;30667;43.614;1.442;2023-10-08T09:37:05;9.00;8.60;4.60
44933;PMS3003;30667;43.614;1.442;2023-10-08T09:39:32;11.60;7.80;4.00
44933;PMS3003;30667;43.614;1.442;2023-10-08T09:42:02;9.20;8.00;4.00
44933;PMS3003;30667;43.614;1.442;2023-10-08T09:44:31;8.00;8.00;4.00
44933;PMS3003;30667;43.614;1.442;2023-10-08T09:47:00;8.40;6.00;3.00
44933;PMS3003;30667;43.614;1.442;2023-10-08T09:49:33;6.00;6.00;3.00
44933;PMS3003;30667;43.614;1.442;2023-10-08T09:52:06;7.00;6.00;3.00
44933;PMS3003;30667;43.614;1.442;2023-10-08T09:54:37;10.40;8.60;4.00
44933;PMS3003;30667;43.614;1.442;2023-10-08T09:57:14;8.00;7.20;3.00
44933;PMS3003;30667;43.614;1.442;2023-10-08T09:59:44;9.20;8.20;4.40
44933;PMS3003;30667;43.614;1.442;2023-10-08T10:02:12;7.20;7.00;3.20
44933;PMS3003;30667;43.614;1.442;2023-10-08T10:04:41;6.75;6.50;3.00
44933;PMS3003;30667;43.614;1.442;2023-10-08T10:07:09;6.40;6.20;3.20
44933;PMS3003;30667;43.614;1.442;2023-10-08T10:09:37;7.00;6.20;3.00
44933;PMS3003;30667;43.614;1.442;2023-10-08T10:12:04;7.00;7.00;3.00
44933;PMS3003;30667;43.614;1.442;2023-10-08T10:14:41;6.00;6.00;3.00
44933;PMS3003;30667;43.614;1.442;2023-10-08T10:17:08;7.20;7.00;3.80
44933;PMS3003;30667;43.614;1.442;2023-10-08T10:19:37;5.20;5.20;2.80
44933;PMS3003;30667;43.614;1.442;2023-10-08T10:22:03;5.00;5.00;3.00
44933;PMS3003;30667;43.614;1.442;2023-10-08T10:24:35;5.60;5.00;2.00
44933;PMS3003;30667;43.614;1.442;2023-10-08T10:27:14;4.60;4.60;2.00
44933;PMS3003;30667;43.614;1.442;2023-10-08T10:29:43;5.00;5.00;1.80
44933;PMS3003;30667;43.614;1.442;2023-10-08T10:32:11;6.80;6.60;3.00
44933;PMS3003;30667;43.614;1.442;2023-10-08T10:34:39;7.00;6.00;3.00
44933;PMS3003;30667;43.614;1.442;2023-10-08T10:37:06;5.60;5.00;3.00
44933;PMS3003;30667;43.614;1.442;2023-10-08T10:39:50;7.60;7.00;3.00
44933;PMS3003;30667;43.614;1.442;2023-10-08T10:42:26;5.20;5.00;3.00
44933;PMS3003;30667;43.614;1.442;2023-10-08T10:44:53;6.40;6.00;2.80
44933;PMS3003;30667;43.614;1.442;2023-10-08T10:47:20;6.00;5.60;2.00
44933;PMS3003;30667;43.614;1.442;2023-10-08T10:49:50;7.00;6.00;3.00
44933;PMS3003;30667;43.614;1.442;2023-10-08T10:52:16;6.00;5.00;2.20
44933;PMS3003;30667;43.614;1.442;2023-10-08T10:54:57;6.20;5.00;2.00
44933;PMS3003;30667;43.614;1.442;2023-10-08T10:57:42;4.20;4.00;2.00
44933;PMS3003;30667;43.614;1.442;2023-10-08T11:00:10;6.20;5.00;2.00
44933;PMS3003;30667;43.614;1.442;2023-10-08T11:02:58;6.00;6.00;3.00
44933;PMS3003;30667;43.614;1.442;2023-10-08T11:05:31;6.40;5.40;2.00
44933;PMS3003;30667;43.614;1.442;2023-10-08T11:08:02;6.20;5.80;2.00
44933;PMS3003;30667;43.614;1.442;2023-10-08T11:10:33;6.40;5.60;2.00
44933;PMS3003;30667;43.614;1.442;2023-10-08T11:13:03;6.00;6.00;2.20
44933;PMS3003;30667;43.614;1.442;2023-10-08T11:15:39;4.80;4.80;2.00
44933;PMS3003;30667;43.614;1.442;2023-10-08T11:18:11;7.00;6.00;2.00
44933;PMS3003;30667;43.614;1.442;2023-10-08T11:20:38;7.00;5.60;2.80
44933;PMS3003;30667;43.614;1.442;2023-10-08T11:23:09;6.20;5.60;2.60
44933;PMS3003;30667;43.614;1.442;2023-10-08T11:28:27;9.00;8.40;4.00
44933;PMS3003;30667;43.614;1.442;2023-10-08T11:31:11;7.60;7.40;3.80
44933;PMS3003;30667;43.614;1.442;2023-10-08T11:33:41;5.00;5.00;2.20
44933;PMS3003;30667;43.614;1.442;2023-10-08T11:36:08;5.80;5.80;2.00
44933;PMS3003;30667;43.614;1.442;2023-10-08T11:38:44;5.60;5.00;2.00
44933;PMS3003;30667;43.614;1.442;2023-10-08T11:41:15;6.60;5.00;2.00
44933;PMS3003;30667;43.614;1.442;2023-10-08T11:43:53;7.80;7.00;3.00
44933;PMS3003;30667;43.614;1.442;2023-10-08T11:46:31;5.00;5.00;2.80
44933;PMS3003;30667;43.614;1.442;2023-10-08T11:49:06;5.60;5.00;2.20
44933;PMS3003;30667;43.614;1.442;2023-10-08T11:51:32;4.20;4.00;1.20
44933;PMS3003;30667;43.614;1.442;2023-10-08T11:53:59;4.00;4.00;2.00
44933;PMS3003;30667;43.614;1.442;2023-10-08T11:56:26;7.60;7.00;4.00
44933;PMS3003;30667;43.614;1.442;2023-10-08T11:58:53;7.00;5.40;2.00
44933;PMS3003;30667;43.614;1.442;2023-10-08T12:01:21;6.20;6.00;3.00
44933;PMS3003;30667;43.614;1.442;2023-10-08T12:03:49;5.00;5.00;2.00
44933;PMS3003;30667;43.614;1.442;2023-10-08T12:06:15;6.20;6.00;3.00
44933;PMS3003;30667;43.614;1.442;2023-10-08T12:08:43;6.00;5.60;2.00
44933;PMS3003;30667;43.614;1.442;2023-10-08T12:11:14;4.20;4.20;2.00
44933;PMS3003;30667;43.614;1.442;2023-10-08T12:13:41;9.20;6.20;3.00
44933;PMS3003;30667;43.614;1.442;2023-10-08T12:16:12;4.20;4.20;1.60
44933;PMS3003;30667;43.614;1.442;2023-10-08T12:18:43;6.80;6.00;3.00
44933;PMS3003;30667;43.614;1.442;2023-10-08T12:21:11;5.80;5.00;2.00
44933;PMS3003;30667;43.614;1.442;2023-10-08T12:23:39;5.20;5.00;2.00
44933;PMS3003;30667;43.614;1.442;2023-10-08T12:26:06;4.80;4.60;2.00
44933;PMS3003;30667;43.614;1.442;2023-10-08T12:28:34;5.00;5.00;3.00
44933;PMS3003;30667;43.614;1.442;2023-10-08T12:31:01;3.60;3.60;1.00
44933;PMS3003;30667;43.614;1.442;2023-10-08T12:33:28;4.60;4.20;2.00
44933;PMS3003;30667;43.614;1.442;2023-10-08T12:35:55;5.40;4.60;2.00
44933;PMS3003;30667;43.614;1.442;2023-10-08T12:38:22;5.00;5.00;3.00
44933;PMS3003;30667;43.614;1.442;2023-10-08T12:40:56;4.60;4.40;3.00
44933;PMS3003;30667;43.614;1.442;2023-10-08T12:43:24;5.00;5.00;2.60
44933;PMS3003;30667;43.614;1.442;2023-10-08T12:45:53;6.00;6.00;2.20
44933;PMS3003;30667;43.614;1.442;2023-10-08T12:48:25;5.20;5.00;2.20
44933;PMS3003;30667;43.614;1.442;2023-10-08T12:50:52;5.00;5.00;2.60
44933;PMS3003;30667;43.614;1.442;2023-10-08T12:53:19;4.80;4.80;2.00
44933;PMS3003;30667;43.614;1.442;2023-10-08T12:55:49;5.80;4.80;2.80
44933;PMS3003;30667;43.614;1.442;2023-10-08T12:58:18;6.40;6.40;3.00
44933;PMS3003;30667;43.614;1.442;2023-10-08T13:00:44;4.75;4.75;2.00
44933;PMS3003;30667;43.614;1.442;2023-10-08T13:03:14;6.20;5.60;2.00
44933;PMS3003;30667;43.614;1.442;2023-10-08T13:05:43;6.00;6.00;3.00
44933;PMS3003;30667;43.614;1.442;2023-10-08T13:08:12;5.60;4.40;2.00
44933;PMS3003;30667;43.614;1.442;2023-10-08T13:10:39;7.20;5.80;2.60
44933;PMS3003;30667;43.614;1.442;2023-10-08T13:13:09;4.80;4.20;1.40
44933;PMS3003;30667;43.614;1.442;2023-10-08T13:15:35;6.00;5.20;1.80
44933;PMS3003;30667;43.614;1.442;2023-10-08T13:18:01;5.00;5.00;2.80
44933;PMS3003;30667;43.614;1.442;2023-10-08T13:20:28;4.80;4.80;2.00
44933;PMS3003;30667;43.614;1.442;2023-10-08T13:22:58;6.20;6.00;2.80
44933;PMS3003;30667;43.614;1.442;2023-10-08T13:25:26;5.60;4.80;1.80
44933;PMS3003;30667;43.614;1.442;2023-10-08T13:27:52;4.75;4.75;2.00
44933;PMS3003;30667;43.614;1.442;2023-10-08T13:30:17;6.00;5.75;2.00
44933;PMS3003;30667;43.614;1.442;2023-10-08T13:32:43;5.50;4.75;2.00
44933;PMS3003;30667;43.614;1.442;2023-10-08T13:35:08;5.00;5.00;2.00
44933;PMS3003;30667;43.614;1.442;2023-10-08T13:37:36;5.00;4.40;2.00
44933;PMS3003;30667;43.614;1.442;2023-10-08T13:40:02;6.20;5.60;3.00
44933;PMS3003;30667;43.614;1.442;2023-10-08T13:42:28;5.80;5.20;2.00
44933;PMS3003;30667;43.614;1.442;2023-10-08T13:44:54;5.00;5.00;2.00
44933;PMS3003;30667;43.614;1.442;2023-10-08T13:47:22;6.20;5.00;2.00
44933;PMS3003;30667;43.614;1.442;2023-10-08T13:49:50;5.00;5.00;2.40
44933;PMS3003;30667;43.614;1.442;2023-10-08T13:52:18;6.00;5.40;2.00
44933;PMS3003;30667;43.614;1.442;2023-10-08T13:54:45;5.20;5.00;2.00
44933;PMS3003;30667;43.614;1.442;2023-10-08T13:57:16;4.40;4.00;2.00
44933;PMS3003;30667;43.614;1.442;2023-10-08T13:59:45;4.60;4.60;2.00
44933;PMS3003;30667;43.614;1.442;2023-10-08T14:02:14;8.80;6.80;3.00
44933;PMS3003;30667;43.614;1.442;2023-10-08T14:04:43;5.40;5.40;2.80
44933;PMS3003;30667;43.614;1.442;2023-10-08T14:07:10;5.60;5.00;1.80
44933;PMS3003;30667;43.614;1.442;2023-10-08T14:09:46;5.00;5.00;2.00
44933;PMS3003;30667;43.614;1.442;2023-10-08T14:12:12;5.00;5.00;2.75
44933;PMS3003;30667;43.614;1.442;2023-10-08T14:14:39;6.00;5.00;2.00
44933;PMS3003;30667;43.614;1.442;2023-10-08T14:17:08;5.80;4.80;2.20
44933;PMS3003;30667;43.614;1.442;2023-10-08T14:19:39;6.00;5.40;2.00
44933;PMS3003;30667;43.614;1.442;2023-10-08T14:22:16;5.40;4.80;2.40
44933;PMS3003;30667;43.614;1.442;2023-10-08T14:24:46;6.80;5.60;3.00
44933;PMS3003;30667;43.614;1.442;2023-10-08T14:27:12;4.50;4.50;2.00
44933;PMS3003;30667;43.614;1.442;2023-10-08T14:29:40;5.80;5.80;3.00
44933;PMS3003;30667;43.614;1.442;2023-10-08T14:32:09;6.00;4.80;2.40
44933;PMS3003;30667;43.614;1.442;2023-10-08T14:34:38;6.00;5.00;1.60
44933;PMS3003;30667;43.614;1.442;2023-10-08T14:37:12;4.60;4.60;2.00
44933;PMS3003;30667;43.614;1.442;2023-10-08T14:39:57;5.40;5.40;2.00